Time;durP1;ratioP1;P1;durP2;ratioP2;P2;SDS_P1;SDS_P2;PMS_P1;PMS_P2;Temp;Humidity;BMP_temperature;BMP_pressure;BME280_temperature;BME280_humidity;BME280_pressure;Samples;Min_cycle;Max_cycle;Signal;HPM_P1;HPM_P2
2023/09/14 06:04:51;;;;;;;13.45;5.00;;;;;;;;;;5091018;27;22256;-77
2023/09/14 06:08:32;;;;;;;7.30;4.30;;;;;;;;;;5102189;28;20043;-76
2023/09/14 06:12:13;;;;;;;9.07;4.43;;;;;;;;;;5098543;28;20399;-75
2023/09/14 06:15:54;;;;;;;10.68;4.40;;;;;;;;;;5095430;28;20444;-75
2023/09/14 06:19:37;;;;;;;9.63;4.28;;;;;;;;;;5103811;28;20501;-78
2023/09/14 06:23:17;;;;;;;8.80;4.90;;;;;;;;;;5102557;28;20032;-74
2023/09/14 06:26:57;;;;;;;12.23;5.55;;;;;;;;;;5094851;28;20449;-75
2023/09/14 06:29:42;;;;;;;10.52;4.60;;;;;;;;;;5102159;28;20040;-75
2023/09/14 06:32:09;;;;;;;8.43;4.30;;;;;;;;;;5099570;28;20555;-75
2023/09/14 06:34:37;;;;;;;10.85;4.47;;;;;;;;;;5092146;28;20056;-75
2023/09/14 06:37:04;;;;;;;11.02;4.35;;;;;;;;;;5090636;28;20056;-71
2023/09/14 06:39:31;;;;;;;12.23;4.35;;;;;;;;;;5093372;28;20053;-77
2023/09/14 06:41:57;;;;;;;11.15;4.30;;;;;;;;;;5100239;28;20044;-73
2023/09/14 06:44:25;;;;;;;8.95;4.00;;;;;;;;;;5100772;28;20039;-72
2023/09/14 06:46:51;;;;;;;13.23;4.30;;;;;;;;;;5103572;28;20051;-73
2023/09/14 06:49:57;;;;;;;10.27;3.97;;;;;;;;;;5092988;28;20044;-72
2023/09/14 06:53:39;;;;;;;10.48;4.07;;;;;;;;;;5094438;28;20033;-72
2023/09/14 06:56:41;;;;;;;8.38;4.00;;;;;;;;;;5097304;28;20083;-72
2023/09/14 06:59:08;;;;;;;8.57;4.15;;;;;;;;;;5101906;28;20047;-73
2023/09/14 07:01:35;;;;;;;13.60;4.03;;;;;;;;;;5100303;28;20618;-72
2023/09/14 07:04:02;;;;;;;9.07;3.70;;;;;;;;;;5098629;28;20066;-73
2023/09/14 07:06:29;;;;;;;10.63;3.78;;;;;;;;;;5091881;28;20054;-67
2023/09/14 07:08:56;;;;;;;9.35;4.43;;;;;;;;;;5094316;28;20040;-71
2023/09/14 07:11:25;;;;;;;8.20;4.00;;;;;;;;;;5090086;28;20064;-70
2023/09/14 07:13:51;;;;;;;9.13;3.80;;;;;;;;;;5096273;28;20052;-72
2023/09/14 07:16:18;;;;;;;9.15;3.42;;;;;;;;;;5088718;28;20134;-71
2023/09/14 07:18:46;;;;;;;8.27;3.92;;;;;;;;;;5085522;28;20526;-72
2023/09/14 07:21:14;;;;;;;10.25;4.32;;;;;;;;;;5089293;28;20044;-72
2023/09/14 07:23:41;;;;;;;14.48;4.65;;;;;;;;;;5090389;28;20288;-71
2023/09/14 07:26:08;;;;;;;13.85;4.20;;;;;;;;;;5089550;28;20071;-71
2023/09/14 07:28:37;;;;;;;11.57;3.97;;;;;;;;;;5085956;28;20036;-74
2023/09/14 07:31:05;;;;;;;11.55;3.90;;;;;;;;;;5091787;28;20456;-71
2023/09/14 07:33:34;;;;;;;8.82;4.07;;;;;;;;;;5091408;28;20487;-70
2023/09/14 07:36:00;;;;;;;11.13;3.88;;;;;;;;;;5090211;28;20056;-72
2023/09/14 07:38:26;;;;;;;8.65;3.65;;;;;;;;;;5091516;28;20040;-71
2023/09/14 07:40:53;;;;;;;12.80;3.78;;;;;;;;;;5090106;28;20130;-73
2023/09/14 07:43:21;;;;;;;7.65;3.72;;;;;;;;;;5088077;28;20070;-71
2023/09/14 07:45:48;;;;;;;10.35;3.80;;;;;;;;;;5087158;28;20040;-73
2023/09/14 07:48:14;;;;;;;11.82;3.60;;;;;;;;;;5090196;28;20139;-72
2023/09/14 07:50:41;;;;;;;9.20;3.67;;;;;;;;;;5088700;28;20571;-70
2023/09/14 07:53:10;;;;;;;9.73;4.13;;;;;;;;;;5090771;28;20048;-71
2023/09/14 07:55:40;;;;;;;9.00;3.50;;;;;;;;;;5089126;28;20052;-73
2023/09/14 07:58:06;;;;;;;10.50;3.90;;;;;;;;;;5091751;28;20161;-76
2023/09/14 08:00:34;;;;;;;17.83;3.25;;;;;;;;;;5087493;28;20052;-74
2023/09/14 08:03:21;;;;;;;9.05;3.75;;;;;;;;;;5081419;28;20063;-72
2023/09/14 08:05:51;;;;;;;7.40;2.83;;;;;;;;;;5080293;28;20128;-71
2023/09/14 08:08:18;;;;;;;16.23;4.20;;;;;;;;;;5084856;28;20052;-73
2023/09/14 08:11:09;;;;;;;6.40;3.33;;;;;;;;;;5085710;28;20048;-72
2023/09/14 08:13:38;;;;;;;9.35;3.10;;;;;;;;;;5080398;28;20071;-74
2023/09/14 08:16:05;;;;;;;10.07;3.45;;;;;;;;;;5089423;28;20044;-72
2023/09/14 08:18:32;;;;;;;8.02;3.08;;;;;;;;;;5087462;28;20379;-71
2023/09/14 08:20:58;;;;;;;6.45;3.53;;;;;;;;;;5080956;28;20048;-72
2023/09/14 08:23:29;;;;;;;9.32;3.63;;;;;;;;;;5091541;28;20444;-70
2023/09/14 08:25:55;;;;;;;7.63;3.53;;;;;;;;;;5088728;28;20094;-72
2023/09/14 08:28:24;;;;;;;6.18;3.33;;;;;;;;;;5075056;28;20056;-66
2023/09/14 08:30:50;;;;;;;8.25;3.50;;;;;;;;;;5084356;28;20044;-67
2023/09/14 08:33:18;;;;;;;12.52;3.22;;;;;;;;;;5088396;28;20318;-72
2023/09/14 08:35:45;;;;;;;7.95;2.95;;;;;;;;;;5079367;28;20491;-69
2023/09/14 08:38:14;;;;;;;8.52;2.85;;;;;;;;;;5080462;28;20728;-71
2023/09/14 08:40:41;;;;;;;10.90;3.10;;;;;;;;;;5088290;28;20462;-69
2023/09/14 08:43:29;;;;;;;6.70;2.72;;;;;;;;;;5088570;28;20044;-68
2023/09/14 08:46:01;;;;;;;6.63;2.97;;;;;;;;;;5085323;28;20779;-69
2023/09/14 08:48:42;;;;;;;8.30;2.53;;;;;;;;;;5090988;28;20063;-69
2023/09/14 08:51:11;;;;;;;6.32;2.05;;;;;;;;;;5091322;28;20040;-65
2023/09/14 08:53:39;;;;;;;5.50;2.40;;;;;;;;;;5084217;28;20048;-68
2023/09/14 08:56:09;;;;;;;5.13;2.60;;;;;;;;;;5086126;28;20043;-67
2023/09/14 08:58:36;;;;;;;8.95;3.58;;;;;;;;;;5087560;28;20511;-69
2023/09/14 09:01:03;;;;;;;8.68;2.92;;;;;;;;;;5080098;28;20071;-69
2023/09/14 09:03:30;;;;;;;8.60;3.28;;;;;;;;;;5084805;28;20395;-69
2023/09/14 09:06:01;;;;;;;7.25;2.90;;;;;;;;;;5075540;28;20185;-68
2023/09/14 09:08:28;;;;;;;4.82;2.85;;;;;;;;;;5085813;28;20056;-69
2023/09/14 09:10:58;;;;;;;9.43;2.60;;;;;;;;;;5075130;28;20446;-67
2023/09/14 09:13:34;;;;;;;7.45;2.70;;;;;;;;;;5074283;28;20050;-69
2023/09/14 09:16:01;;;;;;;5.32;2.40;;;;;;;;;;5086594;28;20488;-69
2023/09/14 09:18:28;;;;;;;8.68;2.45;;;;;;;;;;5089253;28;20124;-69
2023/09/14 09:20:57;;;;;;;13.68;2.75;;;;;;;;;;5088251;28;20055;-69
2023/09/14 09:23:26;;;;;;;8.75;2.17;;;;;;;;;;5087159;28;20050;-70
2023/09/14 09:25:53;;;;;;;10.30;2.75;;;;;;;;;;5086916;28;20450;-67
2023/09/14 09:29:00;;;;;;;8.25;2.85;;;;;;;;;;5085616;28;20055;-69
2023/09/14 09:32:41;;;;;;;5.88;2.40;;;;;;;;;;5085407;28;20040;-69
2023/09/14 09:36:21;;;;;;;5.35;2.30;;;;;;;;;;5086340;28;20064;-68
2023/09/14 09:40:01;;;;;;;5.53;2.63;;;;;;;;;;5082196;28;20058;-70
2023/09/14 09:43:44;;;;;;;7.95;2.92;;;;;;;;;;5084408;28;20448;-69
2023/09/14 09:47:25;;;;;;;6.05;2.60;;;;;;;;;;5083401;28;20052;-69
2023/09/14 09:51:06;;;;;;;7.13;2.88;;;;;;;;;;5088527;28;20050;-69
2023/09/14 09:54:46;;;;;;;9.80;3.10;;;;;;;;;;5080260;28;20048;-68
2023/09/14 09:58:30;;;;;;;8.93;2.78;;;;;;;;;;5083658;28;20122;-69
2023/09/14 10:02:10;;;;;;;11.00;3.22;;;;;;;;;;5071414;28;20040;-68
2023/09/14 10:05:54;;;;;;;8.68;2.60;;;;;;;;;;5086714;28;20526;-70
2023/09/14 10:09:34;;;;;;;6.75;2.63;;;;;;;;;;5073453;28;20053;-71
2023/09/14 10:13:16;;;;;;;9.63;2.80;;;;;;;;;;5077888;28;20071;-69
2023/09/14 10:17:03;;;;;;;4.68;2.65;;;;;;;;;;5083071;28;20036;-69
2023/09/14 10:20:43;;;;;;;6.53;2.42;;;;;;;;;;5084751;28;20455;-70
2023/09/14 10:24:23;;;;;;;9.55;2.70;;;;;;;;;;5079028;28;20055;-71
2023/09/14 10:28:04;;;;;;;6.28;2.63;;;;;;;;;;5080063;28;20048;-69
2023/09/14 10:31:45;;;;;;;5.30;2.45;;;;;;;;;;5085386;28;20044;-65
2023/09/14 10:35:29;;;;;;;9.75;2.97;;;;;;;;;;5081587;28;20051;-67
2023/09/14 10:39:09;;;;;;;5.57;2.60;;;;;;;;;;5079955;28;20476;-72
2023/09/14 10:42:51;;;;;;;8.40;2.70;;;;;;;;;;5082505;28;20044;-69
2023/09/14 10:46:32;;;;;;;5.03;2.33;;;;;;;;;;5078724;28;20055;-68
2023/09/14 10:50:13;;;;;;;10.85;2.35;;;;;;;;;;5078877;28;20139;-69
2023/09/14 10:53:53;;;;;;;12.48;2.35;;;;;;;;;;5079144;28;20044;-71
2023/09/14 10:57:43;;;;;;;6.32;2.40;;;;;;;;;;5088581;28;20047;-73
2023/09/14 11:01:24;;;;;;;8.43;2.25;;;;;;;;;;5074367;28;20055;-70
2023/09/14 11:05:03;;;;;;;5.85;2.63;;;;;;;;;;5086309;28;20141;-68
2023/09/14 11:08:45;;;;;;;8.88;2.50;;;;;;;;;;5083743;28;20384;-72
2023/09/14 11:12:25;;;;;;;5.90;2.38;;;;;;;;;;5080270;28;20067;-68
2023/09/14 11:16:24;;;;;;;6.97;2.33;;;;;;;;;;5082325;28;20040;-70
2023/09/14 11:19:40;;;;;;;8.35;2.60;;;;;;;;;;5082010;28;20089;-71
2023/09/14 11:23:12;;;;;;;7.95;2.47;;;;;;;;;;5085539;28;20499;-69
2023/09/14 11:26:53;;;;;;;7.22;2.50;;;;;;;;;;5071942;28;20048;-69
2023/09/14 11:30:33;;;;;;;5.57;2.42;;;;;;;;;;5082800;28;20387;-69
2023/09/14 11:34:18;;;;;;;11.32;2.65;;;;;;;;;;5092203;28;20044;-71
2023/09/14 11:37:56;;;;;;;6.70;2.40;;;;;;;;;;5085249;28;20044;-70
2023/09/14 11:41:56;;;;;;;7.68;2.38;;;;;;;;;;5076182;28;20365;-68
2023/09/14 11:45:35;;;;;;;14.32;3.28;;;;;;;;;;5087488;28;20044;-70
2023/09/14 11:49:15;;;;;;;8.63;2.72;;;;;;;;;;5087902;28;20051;-69
2023/09/14 11:52:57;;;;;;;11.65;2.70;;;;;;;;;;5086842;28;20094;-69
2023/09/14 11:56:37;;;;;;;7.63;2.92;;;;;;;;;;5078794;28;20048;-71
2023/09/14 12:00:17;;;;;;;7.63;2.97;;;;;;;;;;5070882;28;20145;-70
2023/09/14 12:04:00;;;;;;;8.52;3.00;;;;;;;;;;5089755;28;20517;-71
2023/09/14 12:07:42;;;;;;;11.70;3.20;;;;;;;;;;5088328;28;20048;-70
2023/09/14 12:11:23;;;;;;;18.30;4.07;;;;;;;;;;5080476;28;20483;-71
2023/09/14 12:15:04;;;;;;;11.15;3.83;;;;;;;;;;5084069;28;20047;-72
2023/09/14 12:18:44;;;;;;;10.57;3.67;;;;;;;;;;5080962;28;20054;-74
2023/09/14 12:22:25;;;;;;;14.40;4.00;;;;;;;;;;5090718;28;20044;-73
2023/09/14 12:26:05;;;;;;;12.65;4.07;;;;;;;;;;5082527;28;20142;-75
2023/09/14 12:29:45;;;;;;;11.63;3.50;;;;;;;;;;5084836;28;20044;-74
2023/09/14 12:33:26;;;;;;;11.15;3.63;;;;;;;;;;5080032;28;20123;-71
2023/09/14 12:37:09;;;;;;;10.02;3.20;;;;;;;;;;5088412;28;20044;-71
2023/09/14 12:40:55;;;;;;;5.43;2.22;;;;;;;;;;5077762;28;20052;-70
2023/09/14 12:44:40;;;;;;;8.88;2.47;;;;;;;;;;5086658;28;20078;-70
2023/09/14 12:48:24;;;;;;;9.55;2.95;;;;;;;;;;5085800;28;20063;-72
2023/09/14 12:52:05;;;;;;;8.00;2.20;;;;;;;;;;5080353;28;20581;-70
2023/09/14 12:55:46;;;;;;;9.80;2.60;;;;;;;;;;5085699;28;20032;-69
2023/09/14 12:59:26;;;;;;;8.55;2.35;;;;;;;;;;5085914;28;20043;-70
2023/09/14 13:03:08;;;;;;;6.22;2.47;;;;;;;;;;5079300;28;20611;-69
2023/09/14 13:06:48;;;;;;;7.30;2.33;;;;;;;;;;5086346;28;20090;-71
2023/09/14 13:10:31;;;;;;;8.77;2.20;;;;;;;;;;5079189;28;20040;-73
2023/09/14 13:14:10;;;;;;;4.97;2.00;;;;;;;;;;5079575;28;20079;-72
2023/09/14 13:17:50;;;;;;;9.27;2.30;;;;;;;;;;5083694;28;20525;-71
2023/09/14 13:21:31;;;;;;;7.65;2.33;;;;;;;;;;5087825;28;20127;-73
2023/09/14 13:25:11;;;;;;;7.28;2.40;;;;;;;;;;5086425;28;20431;-70
2023/09/14 13:28:52;;;;;;;7.65;2.33;;;;;;;;;;5074753;28;20217;-74
2023/09/14 13:32:33;;;;;;;4.38;1.88;;;;;;;;;;5081337;28;20067;-73
2023/09/14 13:36:15;;;;;;;4.97;2.10;;;;;;;;;;5086926;28;20054;-75
2023/09/14 13:39:55;;;;;;;8.95;2.20;;;;;;;;;;5087220;28;20403;-70
2023/09/14 13:43:39;;;;;;;9.98;2.20;;;;;;;;;;5077305;28;20085;-71
2023/09/14 13:47:20;;;;;;;9.13;2.33;;;;;;;;;;5079961;28;20507;-71
2023/09/14 13:51:03;;;;;;;7.75;2.40;;;;;;;;;;5083152;28;20123;-70
2023/09/14 13:54:43;;;;;;;5.57;2.15;;;;;;;;;;5079827;28;20392;-70
2023/09/14 13:58:27;;;;;;;6.18;2.00;;;;;;;;;;5081893;28;20122;-69
2023/09/14 14:02:15;;;;;;;9.13;2.50;;;;;;;;;;5080938;28;20131;-72
2023/09/14 14:05:55;;;;;;;4.40;1.85;;;;;;;;;;5074719;28;20043;-69
2023/09/14 14:09:36;;;;;;;8.45;2.13;;;;;;;;;;5075880;28;20052;-68
2023/09/14 14:13:16;;;;;;;5.20;2.00;;;;;;;;;;5083837;28;20047;-70
2023/09/14 14:16:57;;;;;;;9.30;2.13;;;;;;;;;;5081755;28;20127;-72
2023/09/14 14:20:38;;;;;;;7.18;1.88;;;;;;;;;;5085498;28;20074;-71
2023/09/14 14:24:17;;;;;;;7.38;1.98;;;;;;;;;;5076432;28;20037;-71
2023/09/14 14:27:57;;;;;;;11.13;1.98;;;;;;;;;;5087244;28;20056;-72
2023/09/14 14:31:38;;;;;;;5.35;2.08;;;;;;;;;;5090866;28;20519;-69
2023/09/14 14:35:19;;;;;;;4.72;2.03;;;;;;;;;;5080875;28;20055;-71
2023/09/14 14:39:00;;;;;;;5.55;1.98;;;;;;;;;;5087163;28;20095;-73
2023/09/14 14:42:40;;;;;;;5.43;1.80;;;;;;;;;;5084950;28;20036;-71
2023/09/14 14:46:21;;;;;;;7.00;1.80;;;;;;;;;;5080030;28;20062;-74
2023/09/14 14:50:01;;;;;;;7.72;2.28;;;;;;;;;;5083995;28;20055;-68
2023/09/14 14:53:43;;;;;;;8.20;2.08;;;;;;;;;;5081526;28;20086;-69
2023/09/14 14:57:21;;;;;;;4.35;2.03;;;;;;;;;;5088774;28;20036;-68
2023/09/14 15:01:09;;;;;;;6.40;1.92;;;;;;;;;;5079349;28;20188;-70
2023/09/14 15:04:45;;;;;;;5.00;1.90;;;;;;;;;;5079526;28;20051;-69
2023/09/14 15:08:26;;;;;;;6.70;1.55;;;;;;;;;;5084401;28;20495;-70
2023/09/14 15:12:09;;;;;;;3.50;1.63;;;;;;;;;;5077609;28;20747;-69
2023/09/14 15:15:50;;;;;;;2.50;1.30;;;;;;;;;;5084527;28;20118;-70
2023/09/14 15:19:33;;;;;;;3.33;1.42;;;;;;;;;;5087359;28;20396;-67
2023/09/14 15:23:13;;;;;;;3.22;1.70;;;;;;;;;;5079474;28;20040;-68
2023/09/14 15:26:55;;;;;;;6.05;1.60;;;;;;;;;;5087213;28;20329;-67
2023/09/14 15:30:35;;;;;;;4.80;1.52;;;;;;;;;;5084387;28;20059;-69
2023/09/14 15:34:16;;;;;;;7.82;1.90;;;;;;;;;;5084932;28;20036;-70
2023/09/14 15:37:58;;;;;;;8.40;1.92;;;;;;;;;;5086810;28;20059;-68
2023/09/14 15:41:40;;;;;;;6.93;1.65;;;;;;;;;;5086629;28;20448;-69
2023/09/14 15:45:22;;;;;;;3.28;1.65;;;;;;;;;;5083726;28;20044;-69
2023/09/14 15:49:02;;;;;;;5.70;1.73;;;;;;;;;;5087455;28;20052;-67
2023/09/14 15:52:44;;;;;;;5.10;1.73;;;;;;;;;;5087912;28;20044;-68
2023/09/14 15:56:24;;;;;;;7.38;1.95;;;;;;;;;;5091811;28;20079;-66
2023/09/14 16:00:08;;;;;;;8.15;2.50;;;;;;;;;;5078838;28;20044;-69
2023/09/14 16:03:45;;;;;;;5.43;1.70;;;;;;;;;;5081000;28;20087;-66
2023/09/14 16:07:26;;;;;;;7.45;2.10;;;;;;;;;;5079067;28;20336;-66
2023/09/14 16:11:08;;;;;;;6.72;2.55;;;;;;;;;;5084582;28;20067;-69
2023/09/14 16:14:48;;;;;;;7.47;2.00;;;;;;;;;;5082517;28;20040;-67
2023/09/14 16:18:29;;;;;;;5.55;2.33;;;;;;;;;;5085204;28;20043;-68
2023/09/14 16:22:09;;;;;;;11.05;2.38;;;;;;;;;;5089004;28;20089;-71
2023/09/14 16:24:55;;;;;;;12.85;2.40;;;;;;;;;;5079543;28;20054;-74
2023/09/14 16:27:22;;;;;;;9.00;2.00;;;;;;;;;;5075824;28;20050;-68
2023/09/14 16:29:50;;;;;;;4.88;1.92;;;;;;;;;;5078239;28;20056;-72
2023/09/14 16:32:16;;;;;;;7.63;1.80;;;;;;;;;;5077857;28;20043;-69
2023/09/14 16:34:42;;;;;;;8.73;2.10;;;;;;;;;;5076274;28;20044;-65
2023/09/14 16:37:11;;;;;;;8.57;3.00;;;;;;;;;;5085618;28;20090;-67
2023/09/14 16:39:40;;;;;;;10.25;2.38;;;;;;;;;;5075908;28;20055;-68
2023/09/14 16:42:07;;;;;;;5.18;2.20;;;;;;;;;;5073596;28;20044;-70
2023/09/14 16:44:34;;;;;;;4.38;1.70;;;;;;;;;;5078959;28;20491;-70
2023/09/14 16:47:00;;;;;;;8.05;2.40;;;;;;;;;;5082681;28;20075;-70
2023/09/14 16:49:28;;;;;;;4.75;1.75;;;;;;;;;;5082908;28;20071;-69
2023/09/14 16:51:55;;;;;;;5.55;1.90;;;;;;;;;;5077757;28;20044;-73
2023/09/14 16:54:24;;;;;;;4.22;1.83;;;;;;;;;;5077500;28;20067;-67
2023/09/14 16:56:55;;;;;;;4.63;2.10;;;;;;;;;;5075977;28;20377;-70
2023/09/14 16:59:23;;;;;;;6.78;1.85;;;;;;;;;;5069161;28;20048;-71
2023/09/14 17:01:50;;;;;;;6.85;1.90;;;;;;;;;;5066437;28;20131;-73
2023/09/14 17:04:19;;;;;;;4.47;2.10;;;;;;;;;;5080603;28;20145;-73
2023/09/14 17:06:50;;;;;;;5.03;2.03;;;;;;;;;;5073418;28;20393;-69
2023/09/14 17:09:17;;;;;;;5.70;2.03;;;;;;;;;;5074084;28;20049;-72
2023/09/14 17:11:43;;;;;;;5.57;2.03;;;;;;;;;;5076020;28;20148;-73
2023/09/14 17:14:11;;;;;;;4.30;2.00;;;;;;;;;;5080820;28;20437;-70
2023/09/14 17:16:39;;;;;;;6.45;1.80;;;;;;;;;;5077992;28;20480;-74
2023/09/14 17:19:06;;;;;;;4.90;2.05;;;;;;;;;;5077766;28;20090;-72
2023/09/14 17:21:34;;;;;;;4.55;2.08;;;;;;;;;;5079004;28;20044;-73
2023/09/14 17:24:04;;;;;;;6.50;2.65;;;;;;;;;;5078076;28;20049;-74
2023/09/14 17:26:31;;;;;;;5.43;2.25;;;;;;;;;;5076095;28;20056;-73
2023/09/14 17:28:59;;;;;;;6.80;2.03;;;;;;;;;;5083393;28;20040;-79
2023/09/14 17:31:25;;;;;;;7.00;2.25;;;;;;;;;;5075800;28;20713;-76
2023/09/14 17:33:53;;;;;;;7.32;2.15;;;;;;;;;;5082103;28;20055;-71
2023/09/14 17:36:20;;;;;;;6.00;2.30;;;;;;;;;;5075668;28;20044;-69
2023/09/14 17:38:47;;;;;;;9.70;2.50;;;;;;;;;;5084310;28;20052;-76
2023/09/14 17:41:14;;;;;;;5.05;1.98;;;;;;;;;;5085165;28;20053;-69
2023/09/14 17:43:41;;;;;;;4.20;2.17;;;;;;;;;;5078437;28;20687;-68
2023/09/14 17:46:09;;;;;;;4.22;2.17;;;;;;;;;;5073509;28;20453;-73
2023/09/14 17:48:36;;;;;;;5.35;2.03;;;;;;;;;;5077792;28;20117;-70
2023/09/14 17:51:03;;;;;;;8.73;1.90;;;;;;;;;;5083060;28;20044;-69
2023/09/14 17:53:29;;;;;;;4.78;1.90;;;;;;;;;;5082937;28;20484;-72
2023/09/14 17:55:55;;;;;;;4.88;1.90;;;;;;;;;;5085187;28;20051;-70
2023/09/14 17:58:24;;;;;;;5.45;2.20;;;;;;;;;;5078394;28;20044;-68
2023/09/14 18:00:51;;;;;;;7.78;2.70;;;;;;;;;;5076962;28;20150;-68
2023/09/14 18:03:17;;;;;;;6.72;2.20;;;;;;;;;;5078004;28;20059;-70
2023/09/14 18:05:47;;;;;;;10.82;2.85;;;;;;;;;;5078262;28;20052;-67
2023/09/14 18:08:14;;;;;;;4.18;2.08;;;;;;;;;;5084352;28;20089;-69
2023/09/14 18:11:20;;;;;;;9.10;1.95;;;;;;;;;;5075545;28;20052;-67
2023/09/14 18:15:01;;;;;;;8.60;2.38;;;;;;;;;;5078478;28;20043;-68
2023/09/14 18:18:41;;;;;;;4.22;1.98;;;;;;;;;;5074664;28;20444;-68
2023/09/14 18:22:21;;;;;;;3.30;1.90;;;;;;;;;;5071404;28;20100;-69
2023/09/14 18:26:03;;;;;;;5.75;2.45;;;;;;;;;;5075851;28;20074;-69
2023/09/14 18:29:42;;;;;;;5.80;2.47;;;;;;;;;;5072128;28;21030;-70
2023/09/14 18:33:28;;;;;;;7.60;2.10;;;;;;;;;;5076432;28;20049;-70
2023/09/14 18:37:10;;;;;;;3.03;1.98;;;;;;;;;;5072414;28;20127;-70
2023/09/14 18:40:50;;;;;;;6.72;2.10;;;;;;;;;;5079454;28;20051;-70
2023/09/14 18:44:32;;;;;;;5.50;2.17;;;;;;;;;;5078224;28;20135;-73
2023/09/14 18:48:12;;;;;;;5.28;2.22;;;;;;;;;;5069887;28;20047;-71
2023/09/14 18:51:13;;;;;;;5.88;1.85;;;;;;;;;;5071789;28;20040;-71
2023/09/14 18:53:41;;;;;;;6.20;2.00;;;;;;;;;;5071419;28;20048;-71
2023/09/14 18:56:07;;;;;;;9.40;2.20;;;;;;;;;;5072373;28;20052;-71
2023/09/14 18:58:35;;;;;;;9.75;2.47;;;;;;;;;;5072245;28;20136;-72
2023/09/14 19:01:01;;;;;;;6.18;2.50;;;;;;;;;;5075608;28;20048;-71
2023/09/14 19:04:07;;;;;;;6.88;2.15;;;;;;;;;;5066131;28;20500;-72
2023/09/14 19:07:47;;;;;;;4.57;2.17;;;;;;;;;;5067660;28;20478;-70
2023/09/14 19:11:30;;;;;;;8.07;2.47;;;;;;;;;;5076193;28;20114;-72
2023/09/14 19:15:13;;;;;;;6.50;2.53;;;;;;;;;;5080552;28;20044;-70
2023/09/14 19:18:53;;;;;;;6.30;2.67;;;;;;;;;;5082854;28;20452;-72
2023/09/14 19:22:34;;;;;;;6.13;2.45;;;;;;;;;;5075003;28;20123;-72
2023/09/14 19:26:16;;;;;;;9.57;3.03;;;;;;;;;;5078217;28;20040;-71
2023/09/14 19:29:56;;;;;;;8.50;2.40;;;;;;;;;;5080613;28;20478;-70
2023/09/14 19:33:36;;;;;;;6.65;2.22;;;;;;;;;;5075382;28;20040;-69
2023/09/14 19:37:17;;;;;;;10.18;2.45;;;;;;;;;;5079025;28;20082;-72
2023/09/14 19:39:55;;;;;;;4.47;2.42;;;;;;;;;;5079058;28;20052;-71
2023/09/14 19:43:00;;;;;;;4.68;2.20;;;;;;;;;;5085770;28;20532;-70
2023/09/14 19:46:42;;;;;;;10.65;2.33;;;;;;;;;;5075398;28;20047;-70
2023/09/14 19:50:24;;;;;;;6.72;2.78;;;;;;;;;;5080923;28;20048;-73
2023/09/14 19:53:32;;;;;;;5.85;2.30;;;;;;;;;;5081259;28;20059;-69
2023/09/14 19:56:00;;;;;;;7.28;2.33;;;;;;;;;;5072553;28;20537;-72
2023/09/14 19:58:25;;;;;;;5.13;2.65;;;;;;;;;;5075874;28;20043;-70
2023/09/14 20:00:52;;;;;;;9.88;2.47;;;;;;;;;;5091644;27;20045;-72
2023/09/14 20:03:19;;;;;;;7.47;2.30;;;;;;;;;;5084143;28;20052;-72
2023/09/14 20:06:27;;;;;;;8.32;2.78;;;;;;;;;;5085200;28;20086;-73
2023/09/14 20:09:27;;;;;;;6.25;2.70;;;;;;;;;;5084943;28;20118;-70
2023/09/14 20:11:55;;;;;;;10.07;3.28;;;;;;;;;;5081633;28;20556;-68
2023/09/14 20:14:21;;;;;;;7.80;2.83;;;;;;;;;;5086393;28;20203;-71
2023/09/14 20:16:47;;;;;;;7.93;2.85;;;;;;;;;;5083155;28;20052;-73
2023/09/14 20:19:12;;;;;;;10.48;4.53;;;;;;;;;;5079347;28;20446;-70
2023/09/14 20:21:39;;;;;;;9.23;4.30;;;;;;;;;;5086413;28;20128;-69
2023/09/14 20:24:06;;;;;;;6.32;2.97;;;;;;;;;;5089534;28;21084;-70
2023/09/14 20:26:33;;;;;;;9.18;3.30;;;;;;;;;;5083698;28;20059;-70
2023/09/14 20:28:59;;;;;;;8.25;2.88;;;;;;;;;;5082922;28;20487;-70
2023/09/14 20:31:28;;;;;;;4.72;2.47;;;;;;;;;;5087708;28;20040;-71
2023/09/14 20:33:54;;;;;;;6.82;2.58;;;;;;;;;;5090256;28;20492;-69
2023/09/14 20:36:21;;;;;;;6.72;2.80;;;;;;;;;;5084679;28;20610;-70
2023/09/14 20:38:49;;;;;;;5.80;2.53;;;;;;;;;;5087912;28;20047;-70
2023/09/14 20:41:20;;;;;;;5.10;2.80;;;;;;;;;;5086676;28;20272;-73
2023/09/14 20:43:54;;;;;;;5.30;3.05;;;;;;;;;;5083710;28;20040;-72
2023/09/14 20:46:22;;;;;;;7.93;3.40;;;;;;;;;;5082724;28;20201;-71
2023/09/14 20:48:50;;;;;;;6.43;2.85;;;;;;;;;;5076732;28;20056;-73
2023/09/14 20:51:16;;;;;;;8.68;2.85;;;;;;;;;;5082181;28;20622;-70
2023/09/14 20:53:44;;;;;;;9.02;2.72;;;;;;;;;;5079871;28;20122;-70
2023/09/14 20:56:13;;;;;;;5.78;2.55;;;;;;;;;;5089313;28;20054;-71
2023/09/14 20:58:40;;;;;;;8.85;2.95;;;;;;;;;;5081511;28;20074;-71
2023/09/14 21:01:08;;;;;;;8.13;2.55;;;;;;;;;;5077364;28;20048;-70
2023/09/14 21:03:37;;;;;;;6.20;2.90;;;;;;;;;;5079768;28;20159;-71
2023/09/14 21:06:04;;;;;;;7.30;3.10;;;;;;;;;;5083026;28;20052;-69
2023/09/14 21:08:30;;;;;;;11.38;3.72;;;;;;;;;;5079301;28;20044;-71
2023/09/14 21:10:57;;;;;;;5.07;2.50;;;;;;;;;;5085230;28;20071;-72
2023/09/14 21:13:26;;;;;;;7.50;2.92;;;;;;;;;;5080218;28;20044;-71
2023/09/14 21:15:52;;;;;;;9.23;3.28;;;;;;;;;;5081891;28;20059;-71
2023/09/14 21:18:18;;;;;;;12.68;3.40;;;;;;;;;;5089176;28;20043;-70
2023/09/14 21:20:44;;;;;;;5.78;2.90;;;;;;;;;;5081656;28;20052;-71
2023/09/14 21:23:13;;;;;;;6.10;2.75;;;;;;;;;;5085854;28;20067;-70
2023/09/14 21:25:47;;;;;;;6.63;2.92;;;;;;;;;;5075873;28;20052;-73
2023/09/14 21:28:15;;;;;;;6.20;2.80;;;;;;;;;;5088388;28;21100;-69
2023/09/14 21:30:42;;;;;;;9.38;2.88;;;;;;;;;;5086228;28;20103;-72
2023/09/14 21:33:07;;;;;;;7.93;3.13;;;;;;;;;;5084891;28;20095;-69
2023/09/14 21:35:35;;;;;;;9.57;3.38;;;;;;;;;;5084477;28;20141;-71
2023/09/14 21:38:02;;;;;;;9.55;3.08;;;;;;;;;;5079186;28;20055;-72
2023/09/14 21:40:35;;;;;;;8.25;3.30;;;;;;;;;;5079605;28;20059;-69
2023/09/14 21:43:03;;;;;;;6.63;3.03;;;;;;;;;;5084345;28;20044;-68
2023/09/14 21:45:29;;;;;;;6.85;3.70;;;;;;;;;;5079765;28;20083;-70
2023/09/14 21:47:58;;;;;;;8.68;3.28;;;;;;;;;;5086078;28;20061;-70
2023/09/14 21:50:34;;;;;;;12.55;3.50;;;;;;;;;;5083322;28;20053;-69
2023/09/14 21:53:01;;;;;;;8.50;3.25;;;;;;;;;;5081838;28;20044;-72
2023/09/14 21:55:27;;;;;;;6.78;3.00;;;;;;;;;;5082724;28;20067;-68
2023/09/14 21:57:53;;;;;;;7.40;3.28;;;;;;;;;;5083238;28;20063;-69
2023/09/14 22:00:24;;;;;;;7.32;3.17;;;;;;;;;;5074847;28;20147;-69
2023/09/14 22:02:51;;;;;;;8.45;3.08;;;;;;;;;;5074290;28;20055;-71
2023/09/14 22:05:17;;;;;;;5.05;2.50;;;;;;;;;;5085139;28;20044;-71
2023/09/14 22:07:43;;;;;;;8.27;2.80;;;;;;;;;;5078516;28;20074;-72
2023/09/14 22:10:10;;;;;;;6.18;2.50;;;;;;;;;;5084753;28;20051;-69
2023/09/14 22:12:38;;;;;;;7.45;2.83;;;;;;;;;;5083070;28;20143;-68
2023/09/14 22:15:06;;;;;;;9.00;2.90;;;;;;;;;;5076386;28;20051;-69
2023/09/14 22:17:33;;;;;;;8.70;2.70;;;;;;;;;;5082920;28;20036;-72
2023/09/14 22:20:18;;;;;;;6.22;2.45;;;;;;;;;;5086796;28;20093;-69
2023/09/14 22:22:49;;;;;;;5.50;2.80;;;;;;;;;;5075592;28;20117;-70
2023/09/14 22:25:15;;;;;;;7.78;3.15;;;;;;;;;;5076293;28;20044;-70
2023/09/14 22:27:45;;;;;;;7.05;3.00;;;;;;;;;;5077846;28;20408;-68
2023/09/14 22:30:12;;;;;;;9.23;2.83;;;;;;;;;;5075055;28;20075;-68
2023/09/14 22:32:39;;;;;;;7.60;2.80;;;;;;;;;;5069941;28;20036;-69
2023/09/14 22:35:06;;;;;;;12.32;2.33;;;;;;;;;;5065193;28;20048;-70
2023/09/14 22:37:33;;;;;;;11.43;2.67;;;;;;;;;;5079841;28;20046;-68
2023/09/14 22:39:59;;;;;;;5.68;2.40;;;;;;;;;;5078073;28;20047;-69
2023/09/14 22:42:27;;;;;;;8.68;2.42;;;;;;;;;;5082525;28;20070;-68
2023/09/14 22:44:54;;;;;;;6.88;2.50;;;;;;;;;;5090166;28;20052;-70
2023/09/14 22:47:20;;;;;;;7.53;2.60;;;;;;;;;;5077091;28;20082;-69
2023/09/14 22:49:47;;;;;;;7.55;2.30;;;;;;;;;;5080422;28;20059;-68
2023/09/14 22:52:13;;;;;;;9.35;2.40;;;;;;;;;;5083780;28;20059;-69
2023/09/14 22:54:39;;;;;;;8.57;2.80;;;;;;;;;;5085724;28;20484;-68
2023/09/14 22:57:06;;;;;;;9.18;2.83;;;;;;;;;;5091668;28;20131;-70
2023/09/14 22:59:32;;;;;;;9.43;2.60;;;;;;;;;;5085232;28;20048;-68
2023/09/14 23:02:01;;;;;;;7.28;2.78;;;;;;;;;;5078674;28;20063;-68
2023/09/14 23:04:28;;;;;;;5.32;2.42;;;;;;;;;;5079276;28;20633;-72
2023/09/14 23:06:54;;;;;;;10.75;2.70;;;;;;;;;;5077353;28;20503;-74
2023/09/14 23:09:20;;;;;;;7.35;2.65;;;;;;;;;;5076037;28;20052;-70
2023/09/14 23:11:47;;;;;;;5.72;2.53;;;;;;;;;;5080002;28;20060;-68
2023/09/14 23:14:16;;;;;;;8.32;2.35;;;;;;;;;;5077898;28;20048;-70
2023/09/14 23:16:45;;;;;;;5.03;2.47;;;;;;;;;;5089398;28;20051;-68
2023/09/14 23:19:12;;;;;;;4.53;2.30;;;;;;;;;;5084801;28;20127;-68
2023/09/14 23:21:38;;;;;;;8.48;2.63;;;;;;;;;;5084943;28;20052;-69
2023/09/14 23:24:11;;;;;;;7.95;2.75;;;;;;;;;;5080838;28;20044;-69
2023/09/14 23:26:41;;;;;;;6.13;2.40;;;;;;;;;;5088539;28;20086;-69
2023/09/14 23:29:14;;;;;;;10.20;3.97;;;;;;;;;;5085133;28;20109;-68
2023/09/14 23:31:45;;;;;;;7.90;2.65;;;;;;;;;;5086573;28;20541;-69
2023/09/14 23:34:12;;;;;;;6.63;2.95;;;;;;;;;;5077669;28;20119;-69
2023/09/14 23:36:41;;;;;;;6.60;2.70;;;;;;;;;;5081514;28;20115;-69
2023/09/14 23:39:18;;;;;;;9.70;3.08;;;;;;;;;;5079750;28;20060;-68
2023/09/14 23:41:45;;;;;;;8.05;3.35;;;;;;;;;;5080664;28;20257;-69
2023/09/14 23:44:15;;;;;;;4.97;2.28;;;;;;;;;;5089007;28;20095;-69
2023/09/14 23:46:42;;;;;;;11.25;2.92;;;;;;;;;;5081387;28;20074;-69